sensor_id;sensor_type;location;lat;lon;timestamp;P1;durP1;ratioP1;P2;durP2;ratioP2
1995;SDS011;38556;47.068;15.408;2023-05-07T00:02:09;25.57;;;23.97;;
1995;SDS011;38556;47.068;15.408;2023-05-07T00:04:36;23.83;;;22.43;;
1995;SDS011;38556;47.068;15.408;2023-05-07T00:07:04;24.63;;;23.07;;
1995;SDS011;38556;47.068;15.408;2023-05-07T00:09:32;22.90;;;21.57;;
1995;SDS011;38556;47.068;15.408;2023-05-07T00:11:59;25.00;;;23.47;;
1995;SDS011;38556;47.068;15.408;2023-05-07T00:14:26;22.60;;;21.30;;
1995;SDS011;38556;47.068;15.408;2023-05-07T00:16:53;23.17;;;21.87;;
1995;SDS011;38556;47.068;15.408;2023-05-07T00:19:22;22.40;;;21.20;;
1995;SDS011;38556;47.068;15.408;2023-05-07T00:21:50;21.23;;;20.03;;
1995;SDS011;38556;47.068;15.408;2023-05-07T00:24:18;22.50;;;21.10;;
1995;SDS011;38556;47.068;15.408;2023-05-07T00:26:46;22.17;;;20.80;;
1995;SDS011;38556;47.068;15.408;2023-05-07T00:29:13;21.00;;;19.80;;
1995;SDS011;38556;47.068;15.408;2023-05-07T00:31:40;22.37;;;20.83;;
1995;SDS011;38556;47.068;15.408;2023-05-07T00:34:07;20.60;;;19.60;;
1995;SDS011;38556;47.068;15.408;2023-05-07T00:36:36;21.30;;;20.10;;
1995;SDS011;38556;47.068;15.408;2023-05-07T00:39:04;20.60;;;19.53;;
1995;SDS011;38556;47.068;15.408;2023-05-07T00:41:31;22.37;;;20.87;;
1995;SDS011;38556;47.068;15.408;2023-05-07T00:43:59;22.20;;;21.00;;
1995;SDS011;38556;47.068;15.408;2023-05-07T00:46:27;23.57;;;22.17;;
1995;SDS011;38556;47.068;15.408;2023-05-07T00:48:57;22.70;;;21.40;;
1995;SDS011;38556;47.068;15.408;2023-05-07T00:51:24;22.40;;;21.13;;
1995;SDS011;38556;47.068;15.408;2023-05-07T00:53:54;22.03;;;20.83;;
1995;SDS011;38556;47.068;15.408;2023-05-07T00:56:21;21.00;;;19.83;;
1995;SDS011;38556;47.068;15.408;2023-05-07T00:58:50;21.95;;;20.20;;
1995;SDS011;38556;47.068;15.408;2023-05-07T01:01:17;21.60;;;20.45;;
1995;SDS011;38556;47.068;15.408;2023-05-07T01:03:45;21.80;;;20.60;;
1995;SDS011;38556;47.068;15.408;2023-05-07T01:06:12;21.70;;;20.50;;
1995;SDS011;38556;47.068;15.408;2023-05-07T01:08:42;20.00;;;18.85;;
1995;SDS011;38556;47.068;15.408;2023-05-07T01:11:11;20.20;;;18.92;;
1995;SDS011;38556;47.068;15.408;2023-05-07T01:13:39;20.08;;;19.05;;
1995;SDS011;38556;47.068;15.408;2023-05-07T01:16:08;20.63;;;19.53;;
1995;SDS011;38556;47.068;15.408;2023-05-07T01:18:36;20.07;;;18.87;;
1995;SDS011;38556;47.068;15.408;2023-05-07T01:21:03;20.73;;;19.67;;
1995;SDS011;38556;47.068;15.408;2023-05-07T01:23:33;20.17;;;19.07;;
1995;SDS011;38556;47.068;15.408;2023-05-07T01:26:01;20.20;;;19.13;;
1995;SDS011;38556;47.068;15.408;2023-05-07T01:28:29;20.07;;;18.97;;
1995;SDS011;38556;47.068;15.408;2023-05-07T01:31:02;19.73;;;18.73;;
1995;SDS011;38556;47.068;15.408;2023-05-07T01:33:33;20.47;;;19.37;;
1995;SDS011;38556;47.068;15.408;2023-05-07T01:36:01;20.20;;;19.10;;
1995;SDS011;38556;47.068;15.408;2023-05-07T01:38:33;18.80;;;17.90;;
1995;SDS011;38556;47.068;15.408;2023-05-07T01:41:01;19.57;;;18.57;;
1995;SDS011;38556;47.068;15.408;2023-05-07T01:43:29;19.77;;;18.73;;
1995;SDS011;38556;47.068;15.408;2023-05-07T01:45:57;19.87;;;18.87;;
1995;SDS011;38556;47.068;15.408;2023-05-07T01:48:25;19.97;;;18.97;;
1995;SDS011;38556;47.068;15.408;2023-05-07T01:50:52;20.30;;;19.30;;
1995;SDS011;38556;47.068;15.408;2023-05-07T01:53:20;21.13;;;20.00;;
1995;SDS011;38556;47.068;15.408;2023-05-07T01:55:48;20.50;;;19.30;;
1995;SDS011;38556;47.068;15.408;2023-05-07T01:58:15;20.37;;;19.30;;
1995;SDS011;38556;47.068;15.408;2023-05-07T02:00:43;20.70;;;19.60;;
1995;SDS011;38556;47.068;15.408;2023-05-07T02:03:10;20.13;;;19.13;;
1995;SDS011;38556;47.068;15.408;2023-05-07T02:05:38;20.13;;;19.03;;
1995;SDS011;38556;47.068;15.408;2023-05-07T02:08:05;20.37;;;19.37;;
1995;SDS011;38556;47.068;15.408;2023-05-07T02:10:32;19.33;;;18.43;;
1995;SDS011;38556;47.068;15.408;2023-05-07T02:13:01;19.70;;;18.73;;
1995;SDS011;38556;47.068;15.408;2023-05-07T02:15:28;20.03;;;18.93;;
1995;SDS011;38556;47.068;15.408;2023-05-07T02:17:59;20.70;;;19.40;;
1995;SDS011;38556;47.068;15.408;2023-05-07T02:20:27;19.67;;;18.67;;
1995;SDS011;38556;47.068;15.408;2023-05-07T02:22:55;20.30;;;19.20;;
1995;SDS011;38556;47.068;15.408;2023-05-07T02:25:22;20.17;;;19.17;;
1995;SDS011;38556;47.068;15.408;2023-05-07T02:27:49;18.83;;;17.93;;
1995;SDS011;38556;47.068;15.408;2023-05-07T02:30:18;19.77;;;18.83;;
1995;SDS011;38556;47.068;15.408;2023-05-07T02:32:46;19.90;;;18.90;;
1995;SDS011;38556;47.068;15.408;2023-05-07T02:35:13;19.20;;;18.30;;
1995;SDS011;38556;47.068;15.408;2023-05-07T02:37:41;19.80;;;18.70;;
1995;SDS011;38556;47.068;15.408;2023-05-07T02:40:09;20.27;;;19.10;;
1995;SDS011;38556;47.068;15.408;2023-05-07T02:42:37;20.10;;;19.00;;
1995;SDS011;38556;47.068;15.408;2023-05-07T02:45:05;19.93;;;18.93;;
1995;SDS011;38556;47.068;15.408;2023-05-07T02:47:34;19.40;;;18.43;;
1995;SDS011;38556;47.068;15.408;2023-05-07T02:50:01;20.90;;;19.80;;
1995;SDS011;38556;47.068;15.408;2023-05-07T02:52:29;19.23;;;18.33;;
1995;SDS011;38556;47.068;15.408;2023-05-07T02:54:58;19.93;;;18.93;;
1995;SDS011;38556;47.068;15.408;2023-05-07T02:57:25;20.00;;;19.03;;
1995;SDS011;38556;47.068;15.408;2023-05-07T02:59:52;19.57;;;18.60;;
1995;SDS011;38556;47.068;15.408;2023-05-07T03:02:20;19.73;;;18.80;;
1995;SDS011;38556;47.068;15.408;2023-05-07T03:04:49;19.70;;;18.70;;
1995;SDS011;38556;47.068;15.408;2023-05-07T03:07:16;19.73;;;18.60;;
1995;SDS011;38556;47.068;15.408;2023-05-07T03:09:44;19.93;;;18.83;;
1995;SDS011;38556;47.068;15.408;2023-05-07T03:12:11;20.03;;;19.03;;
1995;SDS011;38556;47.068;15.408;2023-05-07T03:14:39;19.73;;;18.67;;
1995;SDS011;38556;47.068;15.408;2023-05-07T03:17:06;19.90;;;18.80;;
1995;SDS011;38556;47.068;15.408;2023-05-07T03:19:33;20.30;;;19.30;;
1995;SDS011;38556;47.068;15.408;2023-05-07T03:22:02;19.77;;;18.60;;
1995;SDS011;38556;47.068;15.408;2023-05-07T03:24:29;19.47;;;18.47;;
1995;SDS011;38556;47.068;15.408;2023-05-07T03:26:56;19.90;;;18.90;;
1995;SDS011;38556;47.068;15.408;2023-05-07T03:29:24;19.43;;;18.43;;
1995;SDS011;38556;47.068;15.408;2023-05-07T03:31:51;19.50;;;18.60;;
1995;SDS011;38556;47.068;15.408;2023-05-07T03:34:19;19.67;;;18.67;;
1995;SDS011;38556;47.068;15.408;2023-05-07T03:36:47;18.97;;;17.97;;
1995;SDS011;38556;47.068;15.408;2023-05-07T03:39:15;19.90;;;18.90;;
1995;SDS011;38556;47.068;15.408;2023-05-07T03:41:43;19.13;;;18.07;;
1995;SDS011;38556;47.068;15.408;2023-05-07T03:44:10;18.70;;;17.80;;
1995;SDS011;38556;47.068;15.408;2023-05-07T03:46:37;19.17;;;18.27;;
1995;SDS011;38556;47.068;15.408;2023-05-07T03:49:04;19.90;;;18.90;;
1995;SDS011;38556;47.068;15.408;2023-05-07T03:51:32;19.00;;;18.00;;
1995;SDS011;38556;47.068;15.408;2023-05-07T03:54:01;20.13;;;19.13;;
1995;SDS011;38556;47.068;15.408;2023-05-07T03:56:30;19.60;;;18.60;;
1995;SDS011;38556;47.068;15.408;2023-05-07T03:58:57;19.57;;;18.57;;
1995;SDS011;38556;47.068;15.408;2023-05-07T04:01:24;20.60;;;19.50;;
1995;SDS011;38556;47.068;15.408;2023-05-07T04:03:51;21.10;;;20.00;;
1995;SDS011;38556;47.068;15.408;2023-05-07T04:06:18;20.90;;;19.70;;
1995;SDS011;38556;47.068;15.408;2023-05-07T04:08:45;19.90;;;18.80;;
1995;SDS011;38556;47.068;15.408;2023-05-07T04:11:13;20.67;;;19.47;;
1995;SDS011;38556;47.068;15.408;2023-05-07T04:13:41;21.47;;;20.07;;
1995;SDS011;38556;47.068;15.408;2023-05-07T04:16:08;20.63;;;19.53;;
1995;SDS011;38556;47.068;15.408;2023-05-07T04:18:36;20.00;;;19.00;;
1995;SDS011;38556;47.068;15.408;2023-05-07T04:21:03;19.87;;;18.87;;
1995;SDS011;38556;47.068;15.408;2023-05-07T04:23:31;20.00;;;19.00;;
1995;SDS011;38556;47.068;15.408;2023-05-07T04:25:58;20.37;;;19.27;;
1995;SDS011;38556;47.068;15.408;2023-05-07T04:28:26;20.63;;;19.47;;
1995;SDS011;38556;47.068;15.408;2023-05-07T04:30:55;20.83;;;19.73;;
1995;SDS011;38556;47.068;15.408;2023-05-07T04:33:21;20.20;;;19.10;;
1995;SDS011;38556;47.068;15.408;2023-05-07T04:35:48;20.47;;;19.40;;
1995;SDS011;38556;47.068;15.408;2023-05-07T04:38:16;20.50;;;19.40;;
1995;SDS011;38556;47.068;15.408;2023-05-07T04:40:43;21.77;;;20.57;;
1995;SDS011;38556;47.068;15.408;2023-05-07T04:43:12;21.40;;;20.20;;
1995;SDS011;38556;47.068;15.408;2023-05-07T04:45:39;21.05;;;19.85;;
1995;SDS011;38556;47.068;15.408;2023-05-07T04:48:08;20.53;;;19.33;;
1995;SDS011;38556;47.068;15.408;2023-05-07T04:50:36;20.60;;;19.30;;
1995;SDS011;38556;47.068;15.408;2023-05-07T04:53:03;20.73;;;19.43;;
1995;SDS011;38556;47.068;15.408;2023-05-07T04:55:30;20.77;;;19.47;;
1995;SDS011;38556;47.068;15.408;2023-05-07T04:57:58;20.80;;;19.70;;
1995;SDS011;38556;47.068;15.408;2023-05-07T05:00:26;20.23;;;19.13;;
1995;SDS011;38556;47.068;15.408;2023-05-07T05:02:53;21.00;;;20.00;;
1995;SDS011;38556;47.068;15.408;2023-05-07T05:05:22;20.60;;;19.50;;
1995;SDS011;38556;47.068;15.408;2023-05-07T05:07:49;21.17;;;20.07;;
1995;SDS011;38556;47.068;15.408;2023-05-07T05:10:16;22.47;;;21.27;;
1995;SDS011;38556;47.068;15.408;2023-05-07T05:12:44;22.90;;;21.60;;
1995;SDS011;38556;47.068;15.408;2023-05-07T05:15:11;23.63;;;22.23;;
1995;SDS011;38556;47.068;15.408;2023-05-07T05:17:39;22.80;;;21.50;;
1995;SDS011;38556;47.068;15.408;2023-05-07T05:20:07;23.63;;;22.33;;
1995;SDS011;38556;47.068;15.408;2023-05-07T05:22:37;22.80;;;21.50;;
1995;SDS011;38556;47.068;15.408;2023-05-07T05:25:04;23.10;;;21.90;;
1995;SDS011;38556;47.068;15.408;2023-05-07T05:27:32;25.00;;;23.50;;
1995;SDS011;38556;47.068;15.408;2023-05-07T05:29:59;24.00;;;22.70;;
1995;SDS011;38556;47.068;15.408;2023-05-07T05:32:26;22.70;;;21.50;;
1995;SDS011;38556;47.068;15.408;2023-05-07T05:34:53;23.73;;;22.43;;
1995;SDS011;38556;47.068;15.408;2023-05-07T05:37:20;23.67;;;22.27;;
1995;SDS011;38556;47.068;15.408;2023-05-07T05:39:49;23.03;;;21.77;;
1995;SDS011;38556;47.068;15.408;2023-05-07T05:42:16;22.90;;;21.60;;
1995;SDS011;38556;47.068;15.408;2023-05-07T05:44:43;23.27;;;21.87;;
1995;SDS011;38556;47.068;15.408;2023-05-07T05:47:11;22.77;;;21.47;;
1995;SDS011;38556;47.068;15.408;2023-05-07T05:49:38;22.20;;;20.90;;
1995;SDS011;38556;47.068;15.408;2023-05-07T05:52:05;22.33;;;21.13;;
1995;SDS011;38556;47.068;15.408;2023-05-07T05:54:32;20.90;;;19.90;;
1995;SDS011;38556;47.068;15.408;2023-05-07T05:57:01;19.63;;;18.63;;
1995;SDS011;38556;47.068;15.408;2023-05-07T05:59:29;20.33;;;19.23;;
1995;SDS011;38556;47.068;15.408;2023-05-07T06:01:56;19.00;;;18.00;;
1995;SDS011;38556;47.068;15.408;2023-05-07T06:04:23;19.60;;;18.60;;
1995;SDS011;38556;47.068;15.408;2023-05-07T06:06:51;19.87;;;18.87;;
1995;SDS011;38556;47.068;15.408;2023-05-07T06:09:18;19.87;;;18.87;;
1995;SDS011;38556;47.068;15.408;2023-05-07T06:11:45;19.27;;;18.30;;
1995;SDS011;38556;47.068;15.408;2023-05-07T06:14:14;19.50;;;18.50;;
1995;SDS011;38556;47.068;15.408;2023-05-07T06:16:41;20.33;;;19.13;;
1995;SDS011;38556;47.068;15.408;2023-05-07T06:19:08;20.03;;;19.03;;
1995;SDS011;38556;47.068;15.408;2023-05-07T06:21:35;19.93;;;18.93;;
1995;SDS011;38556;47.068;15.408;2023-05-07T06:24:02;20.53;;;19.43;;
1995;SDS011;38556;47.068;15.408;2023-05-07T06:26:30;20.03;;;19.00;;
1995;SDS011;38556;47.068;15.408;2023-05-07T06:28:57;19.67;;;18.47;;
1995;SDS011;38556;47.068;15.408;2023-05-07T06:31:28;19.17;;;17.93;;
1995;SDS011;38556;47.068;15.408;2023-05-07T06:33:57;19.57;;;18.57;;
1995;SDS011;38556;47.068;15.408;2023-05-07T06:36:25;19.13;;;18.23;;
1995;SDS011;38556;47.068;15.408;2023-05-07T06:38:53;19.43;;;18.33;;
1995;SDS011;38556;47.068;15.408;2023-05-07T06:41:20;19.10;;;18.20;;
1995;SDS011;38556;47.068;15.408;2023-05-07T06:43:47;19.40;;;18.23;;
1995;SDS011;38556;47.068;15.408;2023-05-07T06:46:14;19.80;;;18.80;;
1995;SDS011;38556;47.068;15.408;2023-05-07T06:48:43;21.60;;;20.43;;
1995;SDS011;38556;47.068;15.408;2023-05-07T06:51:11;20.33;;;19.23;;
1995;SDS011;38556;47.068;15.408;2023-05-07T06:53:37;19.40;;;18.33;;
1995;SDS011;38556;47.068;15.408;2023-05-07T06:56:06;19.40;;;18.37;;
1995;SDS011;38556;47.068;15.408;2023-05-07T06:58:33;19.10;;;18.20;;
1995;SDS011;38556;47.068;15.408;2023-05-07T07:01:00;20.30;;;19.30;;
1995;SDS011;38556;47.068;15.408;2023-05-07T07:03:27;19.30;;;18.30;;
1995;SDS011;38556;47.068;15.408;2023-05-07T07:05:56;19.97;;;18.97;;
1995;SDS011;38556;47.068;15.408;2023-05-07T07:08:23;19.47;;;18.50;;
1995;SDS011;38556;47.068;15.408;2023-05-07T07:10:50;19.20;;;18.30;;
1995;SDS011;38556;47.068;15.408;2023-05-07T07:13:17;19.00;;;18.00;;
1995;SDS011;38556;47.068;15.408;2023-05-07T07:15:45;19.63;;;18.60;;
1995;SDS011;38556;47.068;15.408;2023-05-07T07:18:12;19.67;;;18.57;;
1995;SDS011;38556;47.068;15.408;2023-05-07T07:20:40;19.50;;;18.57;;
1995;SDS011;38556;47.068;15.408;2023-05-07T07:23:08;19.27;;;18.37;;
1995;SDS011;38556;47.068;15.408;2023-05-07T07:25:36;18.80;;;18.00;;
1995;SDS011;38556;47.068;15.408;2023-05-07T07:28:03;19.50;;;18.60;;
1995;SDS011;38556;47.068;15.408;2023-05-07T07:30:30;18.73;;;17.93;;
1995;SDS011;38556;47.068;15.408;2023-05-07T07:32:57;20.10;;;19.00;;
1995;SDS011;38556;47.068;15.408;2023-05-07T07:35:28;19.03;;;18.13;;
1995;SDS011;38556;47.068;15.408;2023-05-07T07:37:55;20.00;;;18.90;;
1995;SDS011;38556;47.068;15.408;2023-05-07T07:40:24;19.70;;;18.63;;
1995;SDS011;38556;47.068;15.408;2023-05-07T07:42:51;20.17;;;19.07;;
1995;SDS011;38556;47.068;15.408;2023-05-07T07:45:19;20.07;;;19.07;;
1995;SDS011;38556;47.068;15.408;2023-05-07T07:47:46;20.37;;;18.97;;
1995;SDS011;38556;47.068;15.408;2023-05-07T07:50:14;20.60;;;19.53;;
1995;SDS011;38556;47.068;15.408;2023-05-07T07:52:41;20.10;;;19.10;;
1995;SDS011;38556;47.068;15.408;2023-05-07T07:55:08;19.37;;;18.47;;
1995;SDS011;38556;47.068;15.408;2023-05-07T07:57:37;19.27;;;18.37;;
1995;SDS011;38556;47.068;15.408;2023-05-07T08:00:05;19.90;;;18.90;;
1995;SDS011;38556;47.068;15.408;2023-05-07T08:02:33;19.70;;;18.70;;
1995;SDS011;38556;47.068;15.408;2023-05-07T08:05:00;20.07;;;19.07;;
1995;SDS011;38556;47.068;15.408;2023-05-07T08:07:28;19.33;;;18.43;;
1995;SDS011;38556;47.068;15.408;2023-05-07T08:09:55;19.70;;;18.80;;
1995;SDS011;38556;47.068;15.408;2023-05-07T08:12:23;19.13;;;18.33;;
1995;SDS011;38556;47.068;15.408;2023-05-07T08:14:51;19.10;;;18.20;;
1995;SDS011;38556;47.068;15.408;2023-05-07T08:17:19;19.80;;;18.90;;
1995;SDS011;38556;47.068;15.408;2023-05-07T08:19:47;20.30;;;19.10;;
1995;SDS011;38556;47.068;15.408;2023-05-07T08:22:15;20.33;;;19.13;;
1995;SDS011;38556;47.068;15.408;2023-05-07T08:24:43;20.50;;;19.50;;
1995;SDS011;38556;47.068;15.408;2023-05-07T08:27:11;21.43;;;20.10;;
1995;SDS011;38556;47.068;15.408;2023-05-07T08:29:38;21.13;;;19.97;;
1995;SDS011;38556;47.068;15.408;2023-05-07T08:32:07;20.00;;;19.10;;
1995;SDS011;38556;47.068;15.408;2023-05-07T08:34:34;20.03;;;19.13;;
1995;SDS011;38556;47.068;15.408;2023-05-07T08:37:01;20.40;;;19.40;;
1995;SDS011;38556;47.068;15.408;2023-05-07T08:39:29;20.03;;;19.03;;
1995;SDS011;38556;47.068;15.408;2023-05-07T08:41:56;20.83;;;19.73;;
1995;SDS011;38556;47.068;15.408;2023-05-07T08:44:27;21.93;;;20.77;;
1995;SDS011;38556;47.068;15.408;2023-05-07T08:46:57;21.57;;;20.47;;
1995;SDS011;38556;47.068;15.408;2023-05-07T08:49:28;20.20;;;19.10;;
1995;SDS011;38556;47.068;15.408;2023-05-07T08:51:56;20.70;;;19.70;;
1995;SDS011;38556;47.068;15.408;2023-05-07T08:54:23;21.33;;;20.33;;
1995;SDS011;38556;47.068;15.408;2023-05-07T08:56:51;20.43;;;19.40;;
1995;SDS011;38556;47.068;15.408;2023-05-07T08:59:18;21.03;;;19.90;;
1995;SDS011;38556;47.068;15.408;2023-05-07T09:01:46;21.10;;;20.10;;
1995;SDS011;38556;47.068;15.408;2023-05-07T09:04:13;20.90;;;19.90;;
1995;SDS011;38556;47.068;15.408;2023-05-07T09:06:42;21.33;;;20.30;;
1995;SDS011;38556;47.068;15.408;2023-05-07T09:09:09;21.60;;;20.60;;
1995;SDS011;38556;47.068;15.408;2023-05-07T09:11:40;20.57;;;19.50;;
1995;SDS011;38556;47.068;15.408;2023-05-07T09:14:08;20.57;;;19.47;;
1995;SDS011;38556;47.068;15.408;2023-05-07T09:16:35;20.57;;;19.47;;
1995;SDS011;38556;47.068;15.408;2023-05-07T09:19:02;19.60;;;18.70;;
1995;SDS011;38556;47.068;15.408;2023-05-07T09:21:30;19.80;;;18.90;;
1995;SDS011;38556;47.068;15.408;2023-05-07T09:23:58;20.50;;;19.47;;
1995;SDS011;38556;47.068;15.408;2023-05-07T09:26:25;21.57;;;20.43;;
1995;SDS011;38556;47.068;15.408;2023-05-07T09:28:54;21.30;;;20.27;;
1995;SDS011;38556;47.068;15.408;2023-05-07T09:31:21;20.00;;;19.10;;
1995;SDS011;38556;47.068;15.408;2023-05-07T09:33:52;20.37;;;19.20;;
1995;SDS011;38556;47.068;15.408;2023-05-07T09:36:21;20.60;;;19.60;;
1995;SDS011;38556;47.068;15.408;2023-05-07T09:38:48;20.83;;;19.73;;
1995;SDS011;38556;47.068;15.408;2023-05-07T09:41:17;19.80;;;18.90;;
1995;SDS011;38556;47.068;15.408;2023-05-07T09:43:46;20.70;;;19.70;;
1995;SDS011;38556;47.068;15.408;2023-05-07T09:46:20;20.80;;;19.70;;
1995;SDS011;38556;47.068;15.408;2023-05-07T09:48:57;20.60;;;19.50;;
1995;SDS011;38556;47.068;15.408;2023-05-07T09:51:28;20.97;;;19.90;;
1995;SDS011;38556;47.068;15.408;2023-05-07T09:53:57;20.93;;;19.63;;
1995;SDS011;38556;47.068;15.408;2023-05-07T09:56:30;20.50;;;19.50;;
1995;SDS011;38556;47.068;15.408;2023-05-07T09:58:58;21.20;;;20.10;;
1995;SDS011;38556;47.068;15.408;2023-05-07T10:01:27;20.83;;;19.83;;
1995;SDS011;38556;47.068;15.408;2023-05-07T10:03:55;20.40;;;19.30;;
1995;SDS011;38556;47.068;15.408;2023-05-07T10:06:23;19.50;;;18.60;;
1995;SDS011;38556;47.068;15.408;2023-05-07T10:08:52;20.77;;;19.67;;
1995;SDS011;38556;47.068;15.408;2023-05-07T10:11:21;20.20;;;19.30;;
1995;SDS011;38556;47.068;15.408;2023-05-07T10:13:50;21.43;;;20.37;;
1995;SDS011;38556;47.068;15.408;2023-05-07T10:16:19;21.10;;;20.00;;
1995;SDS011;38556;47.068;15.408;2023-05-07T10:18:48;20.33;;;19.43;;
1995;SDS011;38556;47.068;15.408;2023-05-07T10:21:17;20.50;;;19.50;;
1995;SDS011;38556;47.068;15.408;2023-05-07T10:23:48;20.27;;;19.37;;
1995;SDS011;38556;47.068;15.408;2023-05-07T10:26:17;20.40;;;19.40;;
1995;SDS011;38556;47.068;15.408;2023-05-07T10:28:47;20.00;;;19.00;;
1995;SDS011;38556;47.068;15.408;2023-05-07T10:31:24;20.77;;;19.83;;
1995;SDS011;38556;47.068;15.408;2023-05-07T10:34:06;19.80;;;18.90;;
1995;SDS011;38556;47.068;15.408;2023-05-07T10:36:35;19.70;;;18.80;;
1995;SDS011;38556;47.068;15.408;2023-05-07T10:39:03;19.07;;;18.17;;
1995;SDS011;38556;47.068;15.408;2023-05-07T10:41:32;19.43;;;18.53;;
1995;SDS011;38556;47.068;15.408;2023-05-07T10:44:01;19.20;;;18.30;;
1995;SDS011;38556;47.068;15.408;2023-05-07T10:46:28;18.80;;;18.00;;
1995;SDS011;38556;47.068;15.408;2023-05-07T10:49:11;18.97;;;18.17;;
1995;SDS011;38556;47.068;15.408;2023-05-07T10:51:39;19.10;;;18.20;;
1995;SDS011;38556;47.068;15.408;2023-05-07T10:54:19;19.23;;;18.33;;
1995;SDS011;38556;47.068;15.408;2023-05-07T10:56:47;19.10;;;18.27;;
1995;SDS011;38556;47.068;15.408;2023-05-07T10:59:36;19.60;;;18.60;;
1995;SDS011;38556;47.068;15.408;2023-05-07T11:02:12;19.73;;;18.83;;
1995;SDS011;38556;47.068;15.408;2023-05-07T11:04:41;18.70;;;17.63;;
1995;SDS011;38556;47.068;15.408;2023-05-07T11:07:23;19.60;;;18.50;;
1995;SDS011;38556;47.068;15.408;2023-05-07T11:09:55;20.10;;;19.10;;
1995;SDS011;38556;47.068;15.408;2023-05-07T11:15:41;20.03;;;19.03;;
1995;SDS011;38556;47.068;15.408;2023-05-07T11:18:10;21.80;;;20.60;;
1995;SDS011;38556;47.068;15.408;2023-05-07T11:20:52;19.33;;;18.43;;
1995;SDS011;38556;47.068;15.408;2023-05-07T11:26:21;18.97;;;17.93;;
1995;SDS011;38556;47.068;15.408;2023-05-07T11:28:49;20.20;;;19.17;;
1995;SDS011;38556;47.068;15.408;2023-05-07T11:31:21;19.80;;;18.80;;
1995;SDS011;38556;47.068;15.408;2023-05-07T11:33:49;20.07;;;19.17;;
1995;SDS011;38556;47.068;15.408;2023-05-07T11:36:18;19.13;;;18.23;;
1995;SDS011;38556;47.068;15.408;2023-05-07T11:38:47;19.27;;;18.37;;
1995;SDS011;38556;47.068;15.408;2023-05-07T11:41:15;19.70;;;18.70;;
1995;SDS011;38556;47.068;15.408;2023-05-07T11:43:54;19.40;;;18.50;;
1995;SDS011;38556;47.068;15.408;2023-05-07T11:46:23;19.60;;;18.63;;
1995;SDS011;38556;47.068;15.408;2023-05-07T11:48:51;19.93;;;18.87;;
1995;SDS011;38556;47.068;15.408;2023-05-07T11:51:18;19.97;;;19.00;;
1995;SDS011;38556;47.068;15.408;2023-05-07T11:53:47;20.10;;;19.00;;
1995;SDS011;38556;47.068;15.408;2023-05-07T11:56:14;22.30;;;21.00;;
1995;SDS011;38556;47.068;15.408;2023-05-07T11:58:43;21.47;;;20.37;;
1995;SDS011;38556;47.068;15.408;2023-05-07T12:01:12;25.07;;;23.67;;
1995;SDS011;38556;47.068;15.408;2023-05-07T12:03:42;20.67;;;19.67;;
1995;SDS011;38556;47.068;15.408;2023-05-07T12:06:11;19.40;;;18.50;;
1995;SDS011;38556;47.068;15.408;2023-05-07T12:08:39;19.77;;;18.87;;
1995;SDS011;38556;47.068;15.408;2023-05-07T12:11:08;19.93;;;19.03;;
1995;SDS011;38556;47.068;15.408;2023-05-07T12:13:37;19.70;;;18.70;;
1995;SDS011;38556;47.068;15.408;2023-05-07T12:16:05;20.13;;;19.20;;
1995;SDS011;38556;47.068;15.408;2023-05-07T12:18:34;19.20;;;18.40;;
1995;SDS011;38556;47.068;15.408;2023-05-07T12:21:03;19.90;;;19.00;;
1995;SDS011;38556;47.068;15.408;2023-05-07T12:23:32;20.13;;;19.23;;
1995;SDS011;38556;47.068;15.408;2023-05-07T12:26:01;19.20;;;18.40;;
1995;SDS011;38556;47.068;15.408;2023-05-07T12:28:28;19.67;;;18.77;;
1995;SDS011;38556;47.068;15.408;2023-05-07T12:30:56;19.40;;;18.50;;
1995;SDS011;38556;47.068;15.408;2023-05-07T12:33:24;19.30;;;18.50;;
1995;SDS011;38556;47.068;15.408;2023-05-07T12:35:54;19.40;;;18.40;;
1995;SDS011;38556;47.068;15.408;2023-05-07T12:38:23;19.60;;;18.60;;
1995;SDS011;38556;47.068;15.408;2023-05-07T12:40:53;19.63;;;18.50;;
1995;SDS011;38556;47.068;15.408;2023-05-07T12:43:21;19.70;;;18.80;;
1995;SDS011;38556;47.068;15.408;2023-05-07T12:45:53;20.00;;;19.10;;
1995;SDS011;38556;47.068;15.408;2023-05-07T12:48:21;20.90;;;19.90;;
1995;SDS011;38556;47.068;15.408;2023-05-07T12:50:49;20.80;;;19.60;;
1995;SDS011;38556;47.068;15.408;2023-05-07T12:53:19;20.83;;;19.73;;
1995;SDS011;38556;47.068;15.408;2023-05-07T12:55:50;20.00;;;19.10;;
1995;SDS011;38556;47.068;15.408;2023-05-07T12:58:19;20.40;;;19.50;;
1995;SDS011;38556;47.068;15.408;2023-05-07T13:00:47;21.00;;;20.00;;
1995;SDS011;38556;47.068;15.408;2023-05-07T13:03:22;20.40;;;19.47;;
1995;SDS011;38556;47.068;15.408;2023-05-07T13:05:51;19.83;;;18.90;;
1995;SDS011;38556;47.068;15.408;2023-05-07T13:08:25;20.80;;;19.80;;
1995;SDS011;38556;47.068;15.408;2023-05-07T13:10:56;21.00;;;20.00;;
1995;SDS011;38556;47.068;15.408;2023-05-07T13:13:24;20.17;;;19.27;;
1995;SDS011;38556;47.068;15.408;2023-05-07T13:15:52;22.03;;;20.70;;
1995;SDS011;38556;47.068;15.408;2023-05-07T13:18:19;21.90;;;20.40;;
1995;SDS011;38556;47.068;15.408;2023-05-07T13:20:46;19.73;;;18.83;;
1995;SDS011;38556;47.068;15.408;2023-05-07T13:23:14;20.57;;;19.57;;
1995;SDS011;38556;47.068;15.408;2023-05-07T13:25:41;20.30;;;19.00;;
1995;SDS011;38556;47.068;15.408;2023-05-07T13:28:09;19.10;;;18.13;;
1995;SDS011;38556;47.068;15.408;2023-05-07T13:30:37;20.70;;;19.40;;
1995;SDS011;38556;47.068;15.408;2023-05-07T13:33:04;19.17;;;18.17;;
1995;SDS011;38556;47.068;15.408;2023-05-07T13:35:31;18.83;;;17.83;;
1995;SDS011;38556;47.068;15.408;2023-05-07T13:37:58;17.90;;;17.07;;
1995;SDS011;38556;47.068;15.408;2023-05-07T13:40:26;18.80;;;17.70;;
1995;SDS011;38556;47.068;15.408;2023-05-07T13:42:53;19.13;;;18.23;;
1995;SDS011;38556;47.068;15.408;2023-05-07T13:45:22;19.60;;;18.50;;
1995;SDS011;38556;47.068;15.408;2023-05-07T13:47:51;19.27;;;18.37;;
1995;SDS011;38556;47.068;15.408;2023-05-07T13:50:18;19.60;;;18.60;;
1995;SDS011;38556;47.068;15.408;2023-05-07T13:52:45;21.00;;;19.80;;
1995;SDS011;38556;47.068;15.408;2023-05-07T13:55:16;20.80;;;19.60;;
1995;SDS011;38556;47.068;15.408;2023-05-07T13:57:44;19.07;;;18.07;;
1995;SDS011;38556;47.068;15.408;2023-05-07T14:00:12;19.93;;;18.87;;
1995;SDS011;38556;47.068;15.408;2023-05-07T14:02:42;23.17;;;21.87;;
1995;SDS011;38556;47.068;15.408;2023-05-07T14:05:10;25.33;;;23.73;;
1995;SDS011;38556;47.068;15.408;2023-05-07T14:07:38;24.63;;;23.17;;
1995;SDS011;38556;47.068;15.408;2023-05-07T14:10:06;26.00;;;24.50;;
1995;SDS011;38556;47.068;15.408;2023-05-07T14:12:34;24.80;;;23.20;;
1995;SDS011;38556;47.068;15.408;2023-05-07T14:15:02;25.67;;;24.03;;
1995;SDS011;38556;47.068;15.408;2023-05-07T14:17:29;25.30;;;23.70;;
1995;SDS011;38556;47.068;15.408;2023-05-07T14:19:58;25.53;;;23.93;;
1995;SDS011;38556;47.068;15.408;2023-05-07T14:22:25;25.60;;;24.10;;
1995;SDS011;38556;47.068;15.408;2023-05-07T14:24:52;23.57;;;22.23;;
1995;SDS011;38556;47.068;15.408;2023-05-07T14:27:20;23.97;;;22.57;;
1995;SDS011;38556;47.068;15.408;2023-05-07T14:29:47;24.90;;;23.50;;
1995;SDS011;38556;47.068;15.408;2023-05-07T14:32:16;24.97;;;23.47;;
1995;SDS011;38556;47.068;15.408;2023-05-07T14:34:44;24.60;;;23.00;;